createdAt,value
2022-11-29T00:01:37.061Z,9.58
2022-11-29T00:03:41.516Z,9.61
2022-11-29T00:05:44.487Z,9.62
2022-11-29T00:07:47.680Z,9.56
2022-11-29T00:09:50.723Z,9.62
2022-11-29T00:12:10.978Z,9.63
2022-11-29T00:14:16.213Z,9.63
2022-11-29T00:16:19.333Z,9.64
2022-11-29T00:18:22.519Z,9.63
2022-11-29T00:20:26.773Z,9.65
2022-11-29T00:22:30.294Z,9.65
2022-11-29T00:24:33.791Z,9.67
2022-11-29T00:26:37.063Z,9.67
2022-11-29T00:28:40.047Z,9.67
2022-11-29T00:30:42.977Z,9.69
2022-11-29T00:32:46.208Z,9.67
2022-11-29T00:34:49.838Z,9.70
2022-11-29T00:36:54.061Z,9.73
2022-11-29T00:38:57.192Z,9.71
2022-11-29T00:41:00.112Z,9.73
2022-11-29T00:43:03.236Z,9.69
2022-11-29T00:45:07.101Z,9.73
2022-11-29T00:47:10.320Z,9.72
2022-11-29T00:49:13.272Z,9.74
2022-11-29T00:51:16.527Z,9.74
2022-11-29T00:53:20.972Z,9.75
2022-11-29T00:55:24.228Z,9.75
2022-11-29T00:57:27.072Z,9.74
2022-11-29T00:59:30.571Z,9.78
2022-11-29T01:01:33.561Z,9.77
2022-11-29T01:03:37.542Z,9.77
2022-11-29T01:05:41.388Z,9.73
2022-11-29T01:07:44.864Z,9.75
2022-11-29T01:09:49.218Z,9.79
2022-11-29T01:11:52.138Z,9.76
2022-11-29T01:13:56.736Z,9.80
2022-11-29T01:15:59.840Z,9.80
2022-11-29T01:18:03.766Z,9.79
2022-11-29T01:20:10.914Z,9.81
2022-11-29T01:22:14.408Z,9.78
2022-11-29T01:24:17.319Z,9.75
2022-11-29T01:26:25.577Z,9.81
2022-11-29T01:28:29.129Z,9.74
2022-11-29T01:30:33.720Z,9.79
2022-11-29T01:32:36.878Z,9.76
2022-11-29T01:34:40.289Z,9.76
2022-11-29T01:36:43.250Z,9.77
2022-11-29T01:38:46.318Z,9.73
2022-11-29T01:40:59.220Z,9.69
2022-11-29T01:43:03.739Z,9.73
2022-11-29T01:45:22.379Z,9.78
2022-11-29T01:47:25.858Z,9.77
2022-11-29T01:49:31.154Z,9.81
2022-11-29T01:51:36.718Z,9.83
2022-11-29T01:53:39.954Z,9.82
2022-11-29T01:55:48.221Z,9.88
2022-11-29T01:57:51.392Z,9.83
2022-11-29T01:59:59.556Z,9.85
2022-11-29T02:02:07.606Z,9.87
2022-11-29T02:04:10.759Z,9.85
2022-11-29T02:06:14.556Z,9.88
2022-11-29T02:08:21.353Z,9.88
2022-11-29T02:10:34.694Z,9.88
2022-11-29T02:12:45.077Z,9.94
2022-11-29T02:15:09.950Z,9.99
2022-11-29T02:17:20.230Z,10.03
2022-11-29T02:19:53.336Z,10.00
2022-11-29T02:21:58.733Z,10.03
2022-11-29T02:24:29.671Z,10.05
2022-11-29T02:26:50.467Z,10.04
2022-11-29T02:29:17.055Z,10.06
2022-11-29T02:31:53.678Z,10.05
2022-11-29T02:34:21.318Z,10.02
2022-11-29T02:36:46.807Z,10.04
2022-11-29T02:39:17.183Z,10.01
2022-11-29T02:41:32.490Z,10.03
2022-11-29T02:44:16.575Z,10.04
2022-11-29T02:46:34.726Z,10.02
2022-11-29T02:48:52.429Z,10.05
2022-11-29T02:51:13.713Z,10.05
2022-11-29T02:53:21.452Z,10.02
2022-11-29T02:55:30.663Z,9.98
2022-11-29T02:57:40.254Z,9.97
2022-11-29T02:59:49.748Z,9.95
2022-11-29T03:01:59.285Z,9.93
2022-11-29T03:04:07.642Z,9.94
2022-11-29T03:06:21.178Z,9.95
2022-11-29T03:08:27.935Z,9.92
2022-11-29T03:10:36.162Z,9.98
2022-11-29T03:12:41.535Z,9.95
2022-11-29T03:14:53.740Z,9.96
2022-11-29T03:17:04.164Z,9.95
2022-11-29T03:19:19.613Z,9.89
2022-11-29T03:21:31.337Z,9.87
2022-11-29T03:23:38.191Z,9.92
2022-11-29T03:25:44.232Z,9.94
2022-11-29T03:27:50.047Z,9.92
2022-11-29T03:29:57.837Z,9.88
2022-11-29T03:32:03.595Z,9.90
2022-11-29T03:34:12.004Z,9.89
2022-11-29T03:36:23.579Z,9.86
2022-11-29T03:38:31.116Z,9.85
2022-11-29T03:40:41.605Z,9.84
2022-11-29T03:42:49.355Z,9.76
2022-11-29T03:44:57.443Z,9.81
2022-11-29T03:47:05.172Z,9.74
2022-11-29T03:49:12.847Z,9.79
2022-11-29T03:51:19.243Z,9.82
2022-11-29T03:53:28.489Z,9.80
2022-11-29T03:55:45.202Z,9.81
2022-11-29T03:57:56.156Z,9.83
2022-11-29T04:00:05.646Z,9.79
2022-11-29T04:02:55.556Z,9.81
2022-11-29T04:05:17.321Z,9.78
2022-11-29T04:07:36.237Z,9.80
2022-11-29T04:09:47.777Z,9.77
2022-11-29T04:12:22.638Z,9.78
2022-11-29T04:14:57.877Z,9.81
2022-11-29T04:17:33.469Z,9.80
2022-11-29T04:20:19.174Z,9.73
2022-11-29T04:22:33.668Z,9.70
2022-11-29T04:25:17.210Z,9.76
2022-11-29T04:27:31.736Z,9.75
2022-11-29T04:30:16.196Z,9.67
2022-11-29T04:32:47.242Z,9.62
2022-11-29T04:35:07.139Z,9.69
2022-11-29T04:37:36.635Z,9.70
2022-11-29T04:40:04.166Z,9.72
2022-11-29T04:42:30.233Z,9.73
2022-11-29T04:44:46.917Z,9.71
2022-11-29T04:47:12.242Z,9.76
2022-11-29T04:49:31.388Z,9.77
2022-11-29T04:51:49.128Z,9.78
2022-11-29T04:53:58.305Z,9.76
2022-11-29T04:56:17.116Z,9.77
2022-11-29T04:58:25.577Z,9.72
2022-11-29T05:00:31.386Z,9.72
2022-11-29T05:02:38.352Z,9.74
2022-11-29T05:04:50.117Z,9.71
2022-11-29T05:07:11.982Z,9.70
2022-11-29T05:09:24.546Z,9.73
2022-11-29T05:11:36.868Z,9.65
2022-11-29T05:13:51.104Z,9.70
2022-11-29T05:16:07.986Z,9.73
2022-11-29T05:18:19.770Z,9.73
2022-11-29T05:20:30.444Z,9.74
2022-11-29T05:22:36.724Z,9.71
2022-11-29T05:24:51.643Z,9.66
2022-11-29T05:27:01.001Z,9.63
2022-11-29T05:29:07.715Z,9.64
2022-11-29T05:31:22.836Z,9.61
2022-11-29T05:33:37.761Z,9.66
2022-11-29T05:35:52.890Z,9.67
2022-11-29T05:37:58.616Z,9.68
2022-11-29T05:40:25.015Z,9.72
2022-11-29T05:42:45.878Z,9.72
2022-11-29T05:44:54.068Z,9.71
2022-11-29T05:46:58.764Z,9.72
2022-11-29T05:49:11.923Z,9.69
2022-11-29T05:51:22.062Z,9.68
2022-11-29T05:53:29.582Z,9.72
2022-11-29T05:55:41.652Z,9.75
2022-11-29T05:57:49.177Z,9.74
2022-11-29T05:59:55.140Z,9.74
2022-11-29T06:02:05.412Z,9.74
2022-11-29T06:04:15.159Z,9.73
2022-11-29T06:06:24.309Z,9.73
2022-11-29T06:08:36.103Z,9.76
2022-11-29T06:10:41.030Z,9.75
2022-11-29T06:12:46.863Z,9.77
2022-11-29T06:15:13.664Z,9.77
2022-11-29T06:17:39.039Z,9.76
2022-11-29T06:20:04.225Z,9.74
2022-11-29T06:22:21.392Z,9.75
2022-11-29T06:24:39.097Z,9.73
2022-11-29T06:26:59.647Z,9.65
2022-11-29T06:29:22.725Z,9.68
2022-11-29T06:31:30.416Z,9.70
2022-11-29T06:33:39.726Z,9.69
2022-11-29T06:35:47.090Z,9.70
2022-11-29T06:37:52.393Z,9.61
2022-11-29T06:39:56.854Z,9.52
2022-11-29T06:41:59.841Z,9.49
2022-11-29T06:44:03.555Z,9.52
2022-11-29T06:46:12.008Z,9.56
2022-11-29T06:48:21.448Z,9.61
2022-11-29T06:50:34.976Z,9.63
2022-11-29T06:52:44.703Z,9.60
2022-11-29T06:54:56.585Z,9.61
2022-11-29T06:57:06.866Z,9.61
2022-11-29T06:59:15.397Z,9.56
2022-11-29T07:01:25.545Z,9.48
2022-11-29T07:03:44.296Z,9.60
2022-11-29T07:05:47.742Z,9.51
2022-11-29T07:07:51.638Z,9.44
2022-11-29T07:09:57.331Z,9.47
2022-11-29T07:12:01.003Z,9.47
2022-11-29T07:14:04.638Z,9.47
2022-11-29T07:16:15.453Z,9.43
2022-11-29T07:18:24.253Z,9.46
2022-11-29T07:20:37.639Z,9.50
2022-11-29T07:22:53.587Z,9.50
2022-11-29T07:25:01.113Z,9.50
2022-11-29T07:27:09.924Z,9.49
2022-11-29T07:29:22.243Z,9.46
2022-11-29T07:31:33.073Z,9.53
2022-11-29T07:33:45.017Z,9.52
2022-11-29T07:35:54.308Z,9.48
2022-11-29T07:38:04.063Z,9.54
2022-11-29T07:40:14.407Z,9.55
2022-11-29T07:42:20.697Z,9.52
2022-11-29T07:44:27.813Z,9.51
2022-11-29T07:46:32.124Z,9.48
2022-11-29T07:48:35.261Z,9.46
2022-11-29T07:50:38.425Z,9.53
2022-11-29T07:52:42.888Z,9.56
2022-11-29T07:54:46.350Z,9.58
2022-11-29T07:56:50.701Z,9.50
2022-11-29T07:58:54.389Z,9.44
2022-11-29T08:00:57.624Z,9.49
2022-11-29T08:03:00.564Z,9.54
2022-11-29T08:05:04.150Z,9.53
2022-11-29T08:07:07.036Z,9.56
2022-11-29T08:09:11.468Z,9.52
2022-11-29T08:11:15.861Z,9.52
2022-11-29T08:13:20.561Z,9.53
2022-11-29T08:15:25.138Z,9.57
2022-11-29T08:17:28.079Z,9.52
2022-11-29T08:19:31.116Z,9.56
2022-11-29T08:21:33.964Z,9.59
2022-11-29T08:23:36.813Z,9.64
2022-11-29T08:25:45.673Z,9.64
2022-11-29T08:27:48.788Z,9.69
2022-11-29T08:29:52.035Z,9.66
2022-11-29T08:31:55.416Z,9.73
2022-11-29T08:34:00.582Z,9.72
2022-11-29T08:36:06.741Z,9.75
2022-11-29T08:38:09.883Z,9.72
2022-11-29T08:40:13.695Z,9.79
2022-11-29T08:42:18.009Z,9.69
2022-11-29T08:44:21.039Z,9.59
2022-11-29T08:46:44.349Z,9.54
2022-11-29T08:48:47.231Z,9.60
2022-11-29T08:50:50.769Z,9.60
2022-11-29T08:53:11.031Z,9.58
2022-11-29T08:55:14.109Z,9.60
2022-11-29T08:57:39.313Z,9.58
2022-11-29T08:59:44.941Z,9.58
2022-11-29T09:01:47.905Z,9.61
2022-11-29T09:04:07.716Z,9.65
2022-11-29T09:06:13.021Z,9.59
2022-11-29T09:08:16.383Z,9.42
2022-11-29T09:10:19.369Z,9.54
2022-11-29T09:12:24.369Z,9.53
2022-11-29T09:14:27.442Z,9.50
2022-11-29T09:16:34.338Z,9.56
2022-11-29T09:18:38.428Z,9.59
2022-11-29T09:20:44.077Z,9.47
2022-11-29T09:22:47.031Z,9.41
2022-11-29T09:24:50.159Z,9.36
2022-11-29T09:26:53.501Z,9.52
2022-11-29T09:29:01.346Z,9.61
2022-11-29T09:31:07.756Z,9.68
2022-11-29T09:33:10.805Z,9.76
2022-11-29T09:35:13.818Z,9.67
2022-11-29T09:37:16.887Z,9.80
2022-11-29T09:39:20.293Z,9.68
2022-11-29T09:41:36.083Z,9.72
2022-11-29T09:43:48.579Z,9.83
2022-11-29T09:45:58.412Z,9.90
2022-11-29T09:48:27.857Z,9.93
2022-11-29T09:50:35.428Z,9.95
2022-11-29T09:52:45.014Z,9.96
2022-11-29T09:54:53.279Z,9.98
2022-11-29T09:56:57.388Z,9.94
2022-11-29T09:59:02.031Z,10.00
2022-11-29T10:01:10.117Z,10.04
2022-11-29T10:03:16.328Z,10.05
2022-11-29T10:05:23.233Z,10.04
2022-11-29T10:07:29.507Z,10.08
2022-11-29T10:09:34.939Z,10.08
2022-11-29T10:11:41.253Z,10.08
2022-11-29T10:13:47.014Z,10.04
2022-11-29T10:15:53.014Z,10.04
2022-11-29T10:18:02.518Z,10.02
2022-11-29T10:20:12.569Z,10.04
2022-11-29T10:22:19.523Z,10.06
2022-11-29T10:24:24.226Z,10.10
2022-11-29T10:26:31.996Z,9.99
2022-11-29T10:28:39.033Z,10.06
2022-11-29T10:30:42.982Z,10.09
2022-11-29T10:32:48.882Z,10.12
2022-11-29T10:34:53.451Z,10.11
2022-11-29T10:37:00.047Z,10.05
2022-11-29T10:39:11.421Z,9.97
2022-11-29T10:41:20.372Z,10.01
2022-11-29T10:43:23.735Z,10.08
2022-11-29T10:45:29.939Z,10.10
2022-11-29T10:47:33.122Z,10.10
2022-11-29T10:49:40.221Z,10.11
2022-11-29T10:51:45.164Z,10.19
2022-11-29T10:53:48.055Z,10.23
2022-11-29T10:55:54.724Z,10.26
2022-11-29T10:58:15.964Z,10.30
2022-11-29T11:00:19.525Z,10.37
2022-11-29T11:02:24.890Z,10.43
2022-11-29T11:04:30.517Z,10.48
2022-11-29T11:06:46.343Z,10.44
2022-11-29T11:08:51.766Z,10.46
2022-11-29T11:11:01.155Z,10.47
2022-11-29T11:13:07.040Z,10.57
2022-11-29T11:15:28.605Z,10.61
2022-11-29T11:17:32.986Z,10.65
2022-11-29T11:19:36.134Z,10.72
2022-11-29T11:21:39.786Z,10.73
2022-11-29T11:23:53.862Z,10.77
2022-11-29T11:25:58.490Z,10.50
2022-11-29T11:28:15.384Z,10.62
2022-11-29T11:30:21.818Z,10.68
2022-11-29T11:32:24.853Z,10.67
2022-11-29T11:34:34.115Z,10.58
2022-11-29T11:36:37.494Z,10.52
2022-11-29T11:38:42.018Z,10.58
2022-11-29T11:40:46.459Z,10.59
2022-11-29T11:42:49.413Z,10.62
2022-11-29T11:44:53.629Z,10.48
2022-11-29T11:46:57.038Z,10.56
2022-11-29T11:49:00.457Z,10.48
2022-11-29T11:51:03.292Z,10.52
2022-11-29T11:53:08.136Z,10.45
2022-11-29T11:55:26.624Z,10.47
2022-11-29T11:57:31.417Z,10.52
2022-11-29T11:59:34.411Z,10.52
2022-11-29T12:01:38.770Z,10.46
2022-11-29T12:03:54.246Z,10.58
2022-11-29T12:06:00.385Z,10.60
2022-11-29T12:08:08.506Z,10.55
2022-11-29T12:10:17.337Z,10.38
2022-11-29T12:12:24.031Z,10.53
2022-11-29T12:14:34.415Z,10.44
2022-11-29T12:16:39.759Z,10.45
2022-11-29T12:18:45.521Z,10.52
2022-11-29T12:20:53.962Z,10.49
2022-11-29T12:23:06.639Z,10.53
2022-11-29T12:25:16.561Z,10.60
2022-11-29T12:27:19.985Z,10.60
2022-11-29T12:29:33.299Z,10.60
2022-11-29T12:31:44.761Z,10.62
2022-11-29T12:33:56.242Z,10.58
2022-11-29T12:36:15.542Z,10.60
2022-11-29T12:38:29.976Z,10.55
2022-11-29T12:40:36.391Z,10.55
2022-11-29T12:42:49.133Z,10.60
2022-11-29T12:44:58.213Z,10.65
2022-11-29T12:49:40.796Z,10.47
2022-11-29T12:51:49.676Z,10.65
2022-11-29T12:54:05.583Z,10.71
2022-11-29T12:56:16.629Z,10.65
2022-11-29T12:58:24.810Z,10.69
2022-11-29T13:00:34.180Z,10.78
2022-11-29T13:02:57.991Z,10.88
2022-11-29T13:05:05.042Z,11.01
2022-11-29T13:07:12.820Z,11.09
2022-11-29T13:09:25.618Z,11.09
2022-11-29T13:11:30.835Z,11.13
2022-11-29T13:13:39.327Z,11.12
2022-11-29T13:15:49.807Z,11.18
2022-11-29T13:17:57.364Z,11.07
2022-11-29T13:20:05.973Z,11.20
2022-11-29T13:22:15.164Z,11.20
2022-11-29T13:24:24.547Z,11.17
2022-11-29T13:26:28.365Z,11.09
2022-11-29T13:28:33.763Z,11.12
2022-11-29T13:30:37.628Z,11.03
2022-11-29T13:32:51.421Z,11.00
2022-11-29T13:34:55.999Z,10.86
2022-11-29T13:37:06.272Z,10.83
2022-11-29T13:39:17.463Z,10.88
2022-11-29T13:41:27.033Z,10.89
2022-11-29T13:43:35.261Z,10.86
2022-11-29T13:45:42.486Z,10.88
2022-11-29T13:47:51.121Z,10.84
2022-11-29T13:49:57.637Z,10.86
2022-11-29T13:52:06.677Z,10.82
2022-11-29T13:54:28.345Z,10.81
2022-11-29T13:56:36.701Z,10.82
2022-11-29T13:58:40.822Z,10.65
2022-11-29T14:00:50.677Z,10.70
2022-11-29T14:02:55.619Z,10.74
2022-11-29T14:04:59.277Z,10.69
2022-11-29T14:07:08.580Z,10.62
2022-11-29T14:09:36.408Z,10.62
2022-11-29T14:11:47.660Z,10.61
2022-11-29T14:13:55.312Z,10.56
2022-11-29T14:16:00.484Z,10.51
2022-11-29T14:18:08.667Z,10.44
2022-11-29T14:20:51.220Z,10.43
2022-11-29T14:23:16.637Z,10.49
2022-11-29T14:25:50.539Z,10.41
2022-11-29T14:28:03.203Z,10.48
2022-11-29T14:30:33.789Z,10.48
2022-11-29T14:32:45.975Z,10.47
2022-11-29T14:34:55.184Z,10.44
2022-11-29T14:37:03.739Z,10.41
2022-11-29T14:39:22.000Z,10.44
2022-11-29T14:41:31.578Z,10.43
2022-11-29T14:43:36.401Z,10.45
2022-11-29T14:45:39.625Z,10.46
2022-11-29T14:47:49.654Z,10.44
2022-11-29T14:49:55.694Z,10.42
2022-11-29T14:52:10.856Z,10.43
2022-11-29T14:54:18.205Z,10.41
2022-11-29T14:56:43.426Z,10.40
2022-11-29T14:58:46.406Z,10.40
2022-11-29T15:00:56.864Z,10.36
2022-11-29T15:03:05.416Z,10.32
2022-11-29T15:05:17.830Z,10.33
2022-11-29T15:07:28.813Z,10.33
2022-11-29T15:09:34.967Z,10.36
2022-11-29T15:11:47.869Z,10.35
2022-11-29T15:13:57.283Z,10.36
2022-11-29T15:16:15.170Z,10.35
2022-11-29T15:18:28.006Z,10.36
2022-11-29T15:20:55.158Z,10.21
2022-11-29T15:23:01.129Z,10.19
2022-11-29T15:25:08.337Z,10.15
2022-11-29T15:27:14.035Z,10.22
2022-11-29T15:29:19.577Z,10.20
2022-11-29T15:31:23.086Z,10.19
2022-11-29T15:33:27.005Z,10.00
2022-11-29T15:35:30.094Z,9.89
2022-11-29T15:37:44.934Z,10.02
2022-11-29T15:39:48.179Z,10.02
2022-11-29T15:41:51.405Z,10.08
2022-11-29T15:43:57.183Z,10.10
2022-11-29T15:46:01.186Z,10.12
2022-11-29T15:48:15.163Z,10.13
2022-11-29T15:50:27.104Z,10.13
2022-11-29T15:52:33.820Z,10.11
2022-11-29T15:54:40.878Z,10.07
2022-11-29T15:56:46.869Z,10.07
2022-11-29T15:58:53.656Z,10.08
2022-11-29T16:00:57.164Z,10.08
2022-11-29T16:03:01.956Z,10.09
2022-11-29T16:05:09.689Z,10.03
2022-11-29T16:07:13.676Z,10.02
2022-11-29T16:09:20.373Z,10.06
2022-11-29T16:11:28.681Z,10.03
2022-11-29T16:13:38.472Z,10.04
2022-11-29T16:15:41.723Z,10.00
2022-11-29T16:17:44.605Z,10.01
2022-11-29T16:19:47.843Z,9.97
2022-11-29T16:22:03.207Z,10.03
2022-11-29T16:24:14.624Z,10.05
2022-11-29T16:26:20.083Z,9.99
2022-11-29T16:28:25.376Z,10.05
2022-11-29T16:30:31.248Z,10.09
2022-11-29T16:32:35.860Z,10.11
2022-11-29T16:34:42.980Z,10.05
2022-11-29T16:36:58.088Z,10.05
2022-11-29T16:39:06.678Z,10.07
2022-11-29T16:41:22.421Z,10.10
2022-11-29T16:43:48.549Z,10.12
2022-11-29T16:46:26.985Z,10.10
2022-11-29T16:48:31.395Z,10.11
2022-11-29T16:50:34.978Z,10.08
2022-11-29T16:52:37.951Z,10.07
2022-11-29T16:54:42.342Z,10.08
2022-11-29T16:56:45.305Z,10.08
2022-11-29T16:59:25.276Z,10.08
2022-11-29T17:01:18.615Z,10.07
2022-11-29T17:03:22.495Z,10.00
2022-11-29T17:05:25.519Z,10.03
2022-11-29T17:07:31.059Z,10.05
2022-11-29T17:09:34.417Z,9.99
2022-11-29T17:11:37.484Z,10.01
2022-11-29T17:13:40.686Z,10.01
2022-11-29T17:15:45.299Z,10.03
2022-11-29T17:17:48.338Z,9.99
2022-11-29T17:19:51.247Z,10.01
2022-11-29T17:21:54.156Z,9.99
2022-11-29T17:23:57.933Z,9.97
2022-11-29T17:26:01.855Z,10.00
2022-11-29T17:28:04.990Z,9.97
2022-11-29T17:30:11.292Z,9.95
2022-11-29T17:32:15.902Z,9.97
2022-11-29T17:34:19.368Z,9.97
2022-11-29T17:36:22.640Z,9.87
2022-11-29T17:38:25.642Z,9.89
2022-11-29T17:40:28.552Z,9.81
2022-11-29T17:42:32.522Z,9.86
2022-11-29T17:44:35.795Z,9.80
2022-11-29T17:46:39.096Z,9.77
2022-11-29T17:48:46.293Z,9.79
2022-11-29T17:50:49.216Z,9.74
2022-11-29T17:52:52.139Z,9.70
2022-11-29T17:54:55.331Z,9.74
2022-11-29T17:56:58.347Z,9.70
2022-11-29T17:59:04.864Z,9.67
2022-11-29T18:01:09.399Z,9.61
2022-11-29T18:03:12.744Z,9.63
2022-11-29T18:05:18.064Z,9.67
2022-11-29T18:07:20.983Z,9.65
2022-11-29T18:09:24.214Z,9.66
2022-11-29T18:11:28.694Z,9.69
2022-11-29T18:13:31.685Z,9.67
2022-11-29T18:15:34.626Z,9.55
2022-11-29T18:17:37.549Z,9.60
2022-11-29T18:19:40.458Z,9.66
2022-11-29T18:21:45.064Z,9.65
2022-11-29T18:23:48.154Z,9.53
2022-11-29T18:25:57.459Z,9.50
2022-11-29T18:28:00.519Z,9.48
2022-11-29T18:30:03.478Z,9.45
2022-11-29T18:32:06.418Z,9.39
2022-11-29T18:34:10.865Z,9.46
2022-11-29T18:36:15.575Z,9.56
2022-11-29T18:38:19.824Z,9.57
2022-11-29T18:40:23.665Z,9.54
2022-11-29T18:42:26.612Z,9.58
2022-11-29T18:44:30.324Z,9.59
2022-11-29T18:46:35.881Z,9.59
2022-11-29T18:48:39.062Z,9.63
2022-11-29T18:50:42.016Z,9.64
2022-11-29T18:52:44.943Z,9.57
2022-11-29T18:54:49.670Z,9.63
2022-11-29T18:56:52.802Z,9.64
2022-11-29T18:58:58.677Z,9.57
2022-11-29T19:01:06.255Z,9.44
2022-11-29T19:03:09.549Z,9.50
2022-11-29T19:05:12.439Z,9.55
2022-11-29T19:07:15.403Z,9.47
2022-11-29T19:09:20.898Z,9.40
2022-11-29T19:11:26.729Z,9.35
2022-11-29T19:13:29.801Z,9.36
2022-11-29T19:15:32.811Z,9.46
2022-11-29T19:17:40.167Z,9.49
2022-11-29T19:19:46.264Z,9.57
2022-11-29T19:21:49.411Z,9.53
2022-11-29T19:23:53.259Z,9.54
2022-11-29T19:25:56.274Z,9.54
2022-11-29T19:28:00.586Z,9.57
2022-11-29T19:30:03.584Z,9.61
2022-11-29T19:32:08.590Z,9.61
2022-11-29T19:34:12.136Z,9.62
2022-11-29T19:36:16.552Z,9.59
2022-11-29T19:38:19.514Z,9.54
2022-11-29T19:40:22.935Z,9.49
2022-11-29T19:42:26.070Z,9.54
2022-11-29T19:44:35.903Z,9.57
2022-11-29T19:46:51.575Z,9.51
2022-11-29T19:48:55.539Z,9.38
2022-11-29T19:51:01.000Z,9.41
2022-11-29T19:53:04.357Z,9.39
2022-11-29T19:55:08.009Z,9.31
2022-11-29T19:57:11.082Z,9.30
2022-11-29T19:59:14.057Z,9.39
2022-11-29T20:01:20.545Z,9.36
2022-11-29T20:03:23.590Z,9.32
2022-11-29T20:05:27.269Z,9.34
2022-11-29T20:07:31.224Z,9.32
2022-11-29T20:09:34.757Z,9.32
2022-11-29T20:11:37.758Z,9.30
2022-11-29T20:13:42.053Z,9.36
2022-11-29T20:15:45.074Z,9.30
2022-11-29T20:17:49.643Z,9.29
2022-11-29T20:19:53.583Z,9.30
2022-11-29T20:21:56.638Z,9.26
2022-11-29T20:24:01.223Z,9.21
2022-11-29T20:26:05.745Z,9.29
2022-11-29T20:28:08.899Z,9.32
2022-11-29T20:30:13.189Z,9.36
2022-11-29T20:32:16.855Z,9.36
2022-11-29T20:34:22.029Z,9.24
2022-11-29T20:36:37.617Z,9.32
2022-11-29T20:38:45.038Z,9.34
2022-11-29T20:41:02.525Z,9.37
2022-11-29T20:43:13.618Z,9.38
2022-11-29T20:45:18.117Z,9.35
2022-11-29T20:47:23.069Z,9.40
2022-11-29T20:49:28.955Z,9.43
2022-11-29T20:51:36.592Z,9.45
2022-11-29T20:53:40.779Z,9.45
2022-11-29T20:55:48.065Z,9.46
2022-11-29T20:57:51.974Z,9.44
2022-11-29T20:59:55.031Z,9.46
2022-11-29T21:02:01.386Z,9.45
2022-11-29T21:04:04.380Z,9.39
2022-11-29T21:06:09.495Z,9.41
2022-11-29T21:08:12.464Z,9.33
2022-11-29T21:10:16.731Z,9.39
2022-11-29T21:12:19.976Z,9.37
2022-11-29T21:14:23.725Z,9.42
2022-11-29T21:16:29.330Z,9.36
2022-11-29T21:18:33.829Z,9.39
2022-11-29T21:20:37.300Z,9.41
2022-11-29T21:22:49.488Z,9.42
2022-11-29T21:24:57.308Z,9.40
2022-11-29T21:27:01.190Z,9.40
2022-11-29T21:29:15.246Z,9.40
2022-11-29T21:31:19.118Z,9.39
2022-11-29T21:33:22.538Z,9.38
2022-11-29T21:35:26.201Z,9.31
2022-11-29T21:37:31.202Z,9.36
2022-11-29T21:39:35.844Z,9.33
2022-11-29T21:41:39.251Z,9.31
2022-11-29T21:44:05.562Z,9.30
2022-11-29T21:46:07.969Z,9.34
2022-11-29T21:48:31.113Z,9.35
2022-11-29T21:50:34.049Z,9.35
2022-11-29T21:52:37.103Z,9.38
2022-11-29T21:54:41.843Z,9.39
2022-11-29T21:56:44.989Z,9.42
2022-11-29T21:58:48.181Z,9.42
2022-11-29T22:00:53.325Z,9.43
2022-11-29T22:02:57.397Z,9.43
2022-11-29T22:05:00.350Z,9.44
2022-11-29T22:07:03.368Z,9.44
2022-11-29T22:09:07.644Z,9.43
2022-11-29T22:11:13.580Z,9.43
2022-11-29T22:13:16.597Z,9.41
2022-11-29T22:15:24.525Z,9.42
2022-11-29T22:17:29.080Z,9.40
2022-11-29T22:19:33.694Z,9.41
2022-11-29T22:21:36.798Z,9.40
2022-11-29T22:23:39.946Z,9.42
2022-11-29T22:25:42.767Z,9.40
2022-11-29T22:27:46.988Z,9.39
2022-11-29T22:29:50.154Z,9.38
2022-11-29T22:31:54.824Z,9.39
2022-11-29T22:33:59.512Z,9.41
2022-11-29T22:36:06.402Z,9.44
2022-11-29T22:38:09.454Z,9.35
2022-11-29T22:40:13.777Z,9.42
2022-11-29T22:42:16.815Z,9.42
2022-11-29T22:44:21.033Z,9.42
2022-11-29T22:46:25.330Z,9.44
2022-11-29T22:48:32.045Z,9.41
2022-11-29T22:50:38.492Z,9.42
2022-11-29T22:52:41.334Z,9.41
2022-11-29T22:54:46.927Z,9.46
2022-11-29T22:56:50.337Z,9.40
2022-11-29T22:58:53.427Z,9.41
2022-11-29T23:01:04.642Z,9.30
2022-11-29T23:03:07.648Z,9.31
2022-11-29T23:05:10.822Z,9.18
2022-11-29T23:07:13.934Z,9.32
2022-11-29T23:09:21.023Z,9.17
2022-11-29T23:11:26.363Z,9.15
2022-11-29T23:13:29.234Z,9.28
2022-11-29T23:15:32.087Z,9.15
2022-11-29T23:17:37.984Z,9.21
2022-11-29T23:19:41.496Z,9.17
2022-11-29T23:21:46.591Z,9.27
2022-11-29T23:23:55.784Z,9.27
2022-11-29T23:25:59.718Z,9.32
2022-11-29T23:28:02.947Z,9.34
2022-11-29T23:30:07.475Z,9.34
2022-11-29T23:32:10.393Z,9.37
2022-11-29T23:34:15.019Z,9.30
2022-11-29T23:36:19.130Z,9.26
2022-11-29T23:38:23.650Z,9.13
2022-11-29T23:40:26.562Z,9.07
2022-11-29T23:42:29.770Z,9.19
2022-11-29T23:44:32.711Z,9.13
2022-11-29T23:46:36.162Z,9.09
2022-11-29T23:48:39.119Z,8.94
2022-11-29T23:50:43.698Z,9.07
2022-11-29T23:52:46.530Z,9.04
2022-11-29T23:54:50.131Z,9.06
2022-11-29T23:56:53.029Z,9.07
2022-11-29T23:58:55.983Z,9.06
